首页
METAR-TAF:

METAR-TAF

机场 :

伊斯法罕, 伊朗

纬度: 32-28N, 经度: 051-43E, 海拔: 1590米

当前天气观测

该预报发布于12分钟前的00:30 UTC
风速4节,风向东南
温度 4°C
湿度 93%
气压 1017 hPa
能見度: 3000
少量云层高于4000英尺
多云层高于10000英尺
轻雾

METAR: OIFM 080030Z 13004KT 3000 BR FEW040 BKN100 04/03 Q1017 A3003

时间: 04:12 (00:42 UTC)

预报

该预报发布于1小时和12分钟前的23:30 UTC
预报有效从08日的 00点(UTC)到 09日的 06点(UTC)
风速6节,风向西
能見度: 3000
散云层高于4000英尺
多云层高于10000英尺
轻雾
短暂存在
从 08日的 00点(UTC)到 08日的 04点(UTC)
能見度: 0400
成为
从 08日的 06点(UTC)到 08日的 08点(UTC)
能見度: 6000
少量云层高于4000英尺
散云层高于10000英尺
短暂存在
从 08日的 09点(UTC)到 08日的 14点(UTC)
少量云层高于3500英尺, 积雨云.
散云层高于4000英尺
散云层高于10000英尺
短暂存在
从 09日的 00点(UTC)到 09日的 05点(UTC)
能見度: 4000
轻雾

TAF: OIFM 072330Z 0800/0906 27006KT 3000 BR SCT040 BKN100 TEMPO 0800/0804 0400 FG BECMG 0806/0808 6000 FEW040 SCT100 TEMPO 0809/0814 FEW035CB SCT040 SCT100 TEMPO 0900/0905 4000 BR

超过4000个机场的气象观测和天气预报(METAR&TAF报告)。

可查询的气象台以黄色和红色小点在地图上表示。

将鼠标移到小点上方,可查看气象台名称。

然后点击查看天气观测和预报。

如需切换地图:点击带黑十字的绿色按钮放大地图;点击带横线的绿色按钮缩小地图;或者点击绿色箭头查看邻近地区的地图。


METAR-TAF: